Amsterdam Airport Schiphol

EHAM | AMS

Amsterdam , North-Holland , Netherlands

Thursday, September 19th, 2019 | 21:21

Weather

EHAM 191855Z 08003KT 9999 FEW025 13/09 Q1030 NOSIG

Charts

2 Available

Gates

289 Available

Runways

6 Available

Events

2 Events Coming Up Soon

Next event:
100 Years KLM |


New event